sensor_id;sensor_type;location;lat;lon;timestamp;temperature;humidity
16879;DHT22;8556;52.218;9.884;2022-12-07T00:01:18;4.30;99.90
16879;DHT22;8556;52.218;9.884;2022-12-07T00:03:46;4.40;99.90
16879;DHT22;8556;52.218;9.884;2022-12-07T00:06:16;4.40;99.90
16879;DHT22;8556;52.218;9.884;2022-12-07T00:08:44;4.40;99.90
16879;DHT22;8556;52.218;9.884;2022-12-07T00:11:13;4.50;99.90
16879;DHT22;8556;52.218;9.884;2022-12-07T00:13:41;4.50;99.90
16879;DHT22;8556;52.218;9.884;2022-12-07T00:16:10;4.50;99.90
16879;DHT22;8556;52.218;9.884;2022-12-07T00:18:37;4.50;99.90
16879;DHT22;8556;52.218;9.884;2022-12-07T00:21:06;4.50;99.90
16879;DHT22;8556;52.218;9.884;2022-12-07T00:23:35;4.50;99.90
16879;DHT22;8556;52.218;9.884;2022-12-07T00:26:05;4.50;99.90
16879;DHT22;8556;52.218;9.884;2022-12-07T00:28:32;4.50;99.90
16879;DHT22;8556;52.218;9.884;2022-12-07T00:31:01;4.50;99.90
16879;DHT22;8556;52.218;9.884;2022-12-07T00:33:28;4.50;99.90
16879;DHT22;8556;52.218;9.884;2022-12-07T00:35:56;4.50;99.90
16879;DHT22;8556;52.218;9.884;2022-12-07T00:38:23;4.50;99.90
16879;DHT22;8556;52.218;9.884;2022-12-07T00:40:55;4.60;99.90
16879;DHT22;8556;52.218;9.884;2022-12-07T00:43:23;4.60;99.90
16879;DHT22;8556;52.218;9.884;2022-12-07T00:45:50;4.60;99.90
16879;DHT22;8556;52.218;9.884;2022-12-07T00:48:17;4.60;99.90
16879;DHT22;8556;52.218;9.884;2022-12-07T00:50:44;4.70;99.90
16879;DHT22;8556;52.218;9.884;2022-12-07T00:53:11;4.70;99.90
16879;DHT22;8556;52.218;9.884;2022-12-07T00:55:38;4.60;99.90
16879;DHT22;8556;52.218;9.884;2022-12-07T00:58:06;4.70;99.90
16879;DHT22;8556;52.218;9.884;2022-12-07T01:00:35;4.70;99.90
16879;DHT22;8556;52.218;9.884;2022-12-07T01:03:02;4.60;99.90
16879;DHT22;8556;52.218;9.884;2022-12-07T01:05:29;4.70;99.90
16879;DHT22;8556;52.218;9.884;2022-12-07T01:07:56;4.60;99.90
16879;DHT22;8556;52.218;9.884;2022-12-07T01:10:22;4.60;99.90
16879;DHT22;8556;52.218;9.884;2022-12-07T01:12:49;4.50;99.90
16879;DHT22;8556;52.218;9.884;2022-12-07T01:15:18;4.60;99.90
16879;DHT22;8556;52.218;9.884;2022-12-07T01:17:44;4.60;99.90
16879;DHT22;8556;52.218;9.884;2022-12-07T01:20:12;4.60;99.90
16879;DHT22;8556;52.218;9.884;2022-12-07T01:22:40;4.60;99.90
16879;DHT22;8556;52.218;9.884;2022-12-07T01:25:08;4.70;99.90
16879;DHT22;8556;52.218;9.884;2022-12-07T01:27:35;4.70;99.90
16879;DHT22;8556;52.218;9.884;2022-12-07T01:30:05;4.70;99.90
16879;DHT22;8556;52.218;9.884;2022-12-07T01:32:33;4.70;99.90
16879;DHT22;8556;52.218;9.884;2022-12-07T01:35:00;4.70;99.90
16879;DHT22;8556;52.218;9.884;2022-12-07T01:37:27;4.70;99.90
16879;DHT22;8556;52.218;9.884;2022-12-07T01:39:54;4.70;99.90
16879;DHT22;8556;52.218;9.884;2022-12-07T01:42:20;4.80;99.90
16879;DHT22;8556;52.218;9.884;2022-12-07T01:48:01;4.80;99.90
16879;DHT22;8556;52.218;9.884;2022-12-07T01:50:29;4.80;99.90
16879;DHT22;8556;52.218;9.884;2022-12-07T01:53:00;4.80;99.90
16879;DHT22;8556;52.218;9.884;2022-12-07T01:55:28;4.90;99.90
16879;DHT22;8556;52.218;9.884;2022-12-07T01:57:55;4.90;99.90
16879;DHT22;8556;52.218;9.884;2022-12-07T02:00:23;4.90;99.90
16879;DHT22;8556;52.218;9.884;2022-12-07T02:02:54;4.90;99.90
16879;DHT22;8556;52.218;9.884;2022-12-07T02:05:24;4.90;99.90
16879;DHT22;8556;52.218;9.884;2022-12-07T02:07:54;4.90;99.90
16879;DHT22;8556;52.218;9.884;2022-12-07T02:10:23;4.90;99.90
16879;DHT22;8556;52.218;9.884;2022-12-07T02:12:54;4.90;99.90
16879;DHT22;8556;52.218;9.884;2022-12-07T02:15:26;4.90;99.90
16879;DHT22;8556;52.218;9.884;2022-12-07T02:18:01;4.90;99.90
16879;DHT22;8556;52.218;9.884;2022-12-07T02:20:34;4.90;99.90
16879;DHT22;8556;52.218;9.884;2022-12-07T02:23:39;4.80;99.90
16879;DHT22;8556;52.218;9.884;2022-12-07T02:29:15;4.90;99.90
16879;DHT22;8556;52.218;9.884;2022-12-07T02:31:48;4.80;99.90
16879;DHT22;8556;52.218;9.884;2022-12-07T02:34:21;4.80;99.90
16879;DHT22;8556;52.218;9.884;2022-12-07T02:36:53;4.80;99.90
16879;DHT22;8556;52.218;9.884;2022-12-07T02:39:26;4.70;99.90
16879;DHT22;8556;52.218;9.884;2022-12-07T02:41:58;4.70;99.90
16879;DHT22;8556;52.218;9.884;2022-12-07T02:44:28;4.60;99.90
16879;DHT22;8556;52.218;9.884;2022-12-07T02:47:00;4.60;99.90
16879;DHT22;8556;52.218;9.884;2022-12-07T02:49:29;4.50;99.90
16879;DHT22;8556;52.218;9.884;2022-12-07T02:51:56;4.50;99.90
16879;DHT22;8556;52.218;9.884;2022-12-07T02:54:23;4.40;99.90
16879;DHT22;8556;52.218;9.884;2022-12-07T02:56:53;4.40;99.90
16879;DHT22;8556;52.218;9.884;2022-12-07T02:59:32;4.40;99.90
16879;DHT22;8556;52.218;9.884;2022-12-07T03:02:14;4.20;99.90
16879;DHT22;8556;52.218;9.884;2022-12-07T03:04:47;4.20;99.90
16879;DHT22;8556;52.218;9.884;2022-12-07T03:07:24;4.10;99.90
16879;DHT22;8556;52.218;9.884;2022-12-07T03:09:59;4.10;99.90
16879;DHT22;8556;52.218;9.884;2022-12-07T03:12:31;4.20;99.90
16879;DHT22;8556;52.218;9.884;2022-12-07T03:15:07;4.20;99.90
16879;DHT22;8556;52.218;9.884;2022-12-07T03:17:38;4.10;99.90
16879;DHT22;8556;52.218;9.884;2022-12-07T03:20:09;4.10;99.90
16879;DHT22;8556;52.218;9.884;2022-12-07T03:22:38;4.00;99.90
16879;DHT22;8556;52.218;9.884;2022-12-07T03:25:09;4.00;99.90
16879;DHT22;8556;52.218;9.884;2022-12-07T03:27:40;4.00;99.90
16879;DHT22;8556;52.218;9.884;2022-12-07T03:30:14;4.00;99.90
16879;DHT22;8556;52.218;9.884;2022-12-07T03:32:44;4.00;99.90
16879;DHT22;8556;52.218;9.884;2022-12-07T03:35:15;3.90;99.90
16879;DHT22;8556;52.218;9.884;2022-12-07T03:37:46;4.00;99.90
16879;DHT22;8556;52.218;9.884;2022-12-07T03:40:19;3.90;99.90
16879;DHT22;8556;52.218;9.884;2022-12-07T03:42:50;3.90;99.90
16879;DHT22;8556;52.218;9.884;2022-12-07T03:45:20;3.90;99.90
16879;DHT22;8556;52.218;9.884;2022-12-07T03:47:54;3.80;99.90
16879;DHT22;8556;52.218;9.884;2022-12-07T03:50:29;3.80;99.90
16879;DHT22;8556;52.218;9.884;2022-12-07T03:53:02;3.80;99.90
16879;DHT22;8556;52.218;9.884;2022-12-07T03:55:33;3.90;99.90
16879;DHT22;8556;52.218;9.884;2022-12-07T03:58:04;3.80;99.90
16879;DHT22;8556;52.218;9.884;2022-12-07T04:00:33;3.70;99.90
16879;DHT22;8556;52.218;9.884;2022-12-07T04:03:00;3.70;99.90
16879;DHT22;8556;52.218;9.884;2022-12-07T04:05:27;3.80;99.90
16879;DHT22;8556;52.218;9.884;2022-12-07T04:07:54;3.90;99.90
16879;DHT22;8556;52.218;9.884;2022-12-07T04:10:21;3.80;99.90
16879;DHT22;8556;52.218;9.884;2022-12-07T04:12:48;3.60;99.90
16879;DHT22;8556;52.218;9.884;2022-12-07T04:15:15;3.60;99.90
16879;DHT22;8556;52.218;9.884;2022-12-07T04:17:43;3.70;99.90
16879;DHT22;8556;52.218;9.884;2022-12-07T04:20:11;3.60;99.90
16879;DHT22;8556;52.218;9.884;2022-12-07T04:22:39;3.60;99.90
16879;DHT22;8556;52.218;9.884;2022-12-07T04:25:06;3.70;99.90
16879;DHT22;8556;52.218;9.884;2022-12-07T04:27:33;3.70;99.90
16879;DHT22;8556;52.218;9.884;2022-12-07T04:30:00;3.80;99.90
16879;DHT22;8556;52.218;9.884;2022-12-07T04:32:26;3.90;99.90
16879;DHT22;8556;52.218;9.884;2022-12-07T04:34:55;3.90;99.90
16879;DHT22;8556;52.218;9.884;2022-12-07T04:37:21;3.90;99.90
16879;DHT22;8556;52.218;9.884;2022-12-07T04:39:48;4.00;99.90
16879;DHT22;8556;52.218;9.884;2022-12-07T04:42:15;4.00;99.90
16879;DHT22;8556;52.218;9.884;2022-12-07T04:44:42;4.10;99.90
16879;DHT22;8556;52.218;9.884;2022-12-07T04:47:10;4.10;99.90
16879;DHT22;8556;52.218;9.884;2022-12-07T04:49:36;4.10;99.90
16879;DHT22;8556;52.218;9.884;2022-12-07T04:52:05;4.10;99.90
16879;DHT22;8556;52.218;9.884;2022-12-07T04:54:31;4.20;99.90
16879;DHT22;8556;52.218;9.884;2022-12-07T04:56:58;4.20;99.90
16879;DHT22;8556;52.218;9.884;2022-12-07T04:59:25;4.30;99.90
16879;DHT22;8556;52.218;9.884;2022-12-07T05:01:52;4.30;99.90
16879;DHT22;8556;52.218;9.884;2022-12-07T05:04:19;4.30;99.90
16879;DHT22;8556;52.218;9.884;2022-12-07T05:06:45;4.30;99.90
16879;DHT22;8556;52.218;9.884;2022-12-07T05:09:14;4.40;99.90
16879;DHT22;8556;52.218;9.884;2022-12-07T05:11:40;4.40;99.90
16879;DHT22;8556;52.218;9.884;2022-12-07T05:14:11;4.40;99.90
16879;DHT22;8556;52.218;9.884;2022-12-07T05:16:39;4.40;99.90
16879;DHT22;8556;52.218;9.884;2022-12-07T05:19:07;4.40;99.90
16879;DHT22;8556;52.218;9.884;2022-12-07T05:21:34;4.40;99.90
16879;DHT22;8556;52.218;9.884;2022-12-07T05:24:01;4.30;99.90
16879;DHT22;8556;52.218;9.884;2022-12-07T05:26:30;4.30;99.90
16879;DHT22;8556;52.218;9.884;2022-12-07T05:28:57;4.40;99.90
16879;DHT22;8556;52.218;9.884;2022-12-07T05:31:25;4.40;99.90
16879;DHT22;8556;52.218;9.884;2022-12-07T05:33:53;4.40;99.90
16879;DHT22;8556;52.218;9.884;2022-12-07T05:36:20;4.40;99.90
16879;DHT22;8556;52.218;9.884;2022-12-07T05:38:50;4.50;99.90
16879;DHT22;8556;52.218;9.884;2022-12-07T05:41:18;4.50;99.90
16879;DHT22;8556;52.218;9.884;2022-12-07T05:44:04;4.50;99.90
16879;DHT22;8556;52.218;9.884;2022-12-07T05:46:34;4.50;99.90
16879;DHT22;8556;52.218;9.884;2022-12-07T05:49:02;4.40;99.90
16879;DHT22;8556;52.218;9.884;2022-12-07T05:51:29;4.40;99.90
16879;DHT22;8556;52.218;9.884;2022-12-07T05:53:56;4.40;99.90
16879;DHT22;8556;52.218;9.884;2022-12-07T05:56:22;4.40;99.90
16879;DHT22;8556;52.218;9.884;2022-12-07T05:58:49;4.40;99.90
16879;DHT22;8556;52.218;9.884;2022-12-07T06:01:35;4.50;99.90
16879;DHT22;8556;52.218;9.884;2022-12-07T06:04:02;4.50;99.90
16879;DHT22;8556;52.218;9.884;2022-12-07T06:06:29;4.50;99.90
16879;DHT22;8556;52.218;9.884;2022-12-07T06:08:56;4.50;99.90
16879;DHT22;8556;52.218;9.884;2022-12-07T06:11:23;4.50;99.90
16879;DHT22;8556;52.218;9.884;2022-12-07T06:14:07;4.60;99.90
16879;DHT22;8556;52.218;9.884;2022-12-07T06:16:35;4.60;99.90
16879;DHT22;8556;52.218;9.884;2022-12-07T06:19:02;4.60;99.90
16879;DHT22;8556;52.218;9.884;2022-12-07T06:21:29;4.60;99.90
16879;DHT22;8556;52.218;9.884;2022-12-07T06:23:56;4.60;99.90
16879;DHT22;8556;52.218;9.884;2022-12-07T06:26:23;4.50;99.90
16879;DHT22;8556;52.218;9.884;2022-12-07T06:28:50;4.60;99.90
16879;DHT22;8556;52.218;9.884;2022-12-07T06:31:17;4.60;99.90
16879;DHT22;8556;52.218;9.884;2022-12-07T06:33:45;4.70;99.90
16879;DHT22;8556;52.218;9.884;2022-12-07T06:36:13;4.70;99.90
16879;DHT22;8556;52.218;9.884;2022-12-07T06:38:40;4.80;99.90
16879;DHT22;8556;52.218;9.884;2022-12-07T06:41:06;4.90;99.90
16879;DHT22;8556;52.218;9.884;2022-12-07T06:43:33;4.90;99.90
16879;DHT22;8556;52.218;9.884;2022-12-07T06:46:00;4.90;99.90
16879;DHT22;8556;52.218;9.884;2022-12-07T06:48:27;4.90;99.90
16879;DHT22;8556;52.218;9.884;2022-12-07T06:50:55;4.90;99.90
16879;DHT22;8556;52.218;9.884;2022-12-07T06:53:22;4.90;99.90
16879;DHT22;8556;52.218;9.884;2022-12-07T06:55:49;4.90;99.90
16879;DHT22;8556;52.218;9.884;2022-12-07T06:58:16;4.90;99.90
16879;DHT22;8556;52.218;9.884;2022-12-07T07:00:44;4.90;99.90
16879;DHT22;8556;52.218;9.884;2022-12-07T07:03:11;4.90;99.90
16879;DHT22;8556;52.218;9.884;2022-12-07T07:05:37;4.90;99.90
16879;DHT22;8556;52.218;9.884;2022-12-07T07:08:06;4.90;99.90
16879;DHT22;8556;52.218;9.884;2022-12-07T07:10:33;4.90;99.90
16879;DHT22;8556;52.218;9.884;2022-12-07T07:13:00;4.90;99.90
16879;DHT22;8556;52.218;9.884;2022-12-07T07:15:27;4.90;99.90
16879;DHT22;8556;52.218;9.884;2022-12-07T07:17:54;4.90;99.90
16879;DHT22;8556;52.218;9.884;2022-12-07T07:20:21;4.90;99.90
16879;DHT22;8556;52.218;9.884;2022-12-07T07:22:48;4.90;99.90
16879;DHT22;8556;52.218;9.884;2022-12-07T07:25:17;4.90;99.90
16879;DHT22;8556;52.218;9.884;2022-12-07T07:27:44;4.80;99.90
16879;DHT22;8556;52.218;9.884;2022-12-07T07:30:11;4.80;99.90
16879;DHT22;8556;52.218;9.884;2022-12-07T07:32:38;4.80;99.90
16879;DHT22;8556;52.218;9.884;2022-12-07T07:35:06;4.80;99.90
16879;DHT22;8556;52.218;9.884;2022-12-07T07:37:33;4.80;99.90
16879;DHT22;8556;52.218;9.884;2022-12-07T07:39:59;4.80;99.90
16879;DHT22;8556;52.218;9.884;2022-12-07T07:42:28;4.80;99.90
16879;DHT22;8556;52.218;9.884;2022-12-07T07:44:54;4.80;99.90
16879;DHT22;8556;52.218;9.884;2022-12-07T07:47:21;4.80;99.90
16879;DHT22;8556;52.218;9.884;2022-12-07T07:49:48;4.70;99.90
16879;DHT22;8556;52.218;9.884;2022-12-07T07:52:15;4.70;99.90
16879;DHT22;8556;52.218;9.884;2022-12-07T07:54:42;4.80;99.90
16879;DHT22;8556;52.218;9.884;2022-12-07T07:57:09;4.80;99.90
16879;DHT22;8556;52.218;9.884;2022-12-07T07:59:37;4.70;99.90
16879;DHT22;8556;52.218;9.884;2022-12-07T08:02:04;4.70;99.90
16879;DHT22;8556;52.218;9.884;2022-12-07T08:04:30;4.80;99.90
16879;DHT22;8556;52.218;9.884;2022-12-07T08:06:57;4.80;99.90
16879;DHT22;8556;52.218;9.884;2022-12-07T08:09:24;4.80;99.90
16879;DHT22;8556;52.218;9.884;2022-12-07T08:11:51;4.80;99.90
16879;DHT22;8556;52.218;9.884;2022-12-07T08:14:18;4.90;99.90
16879;DHT22;8556;52.218;9.884;2022-12-07T08:16:46;4.80;99.90
16879;DHT22;8556;52.218;9.884;2022-12-07T08:19:13;4.80;99.90
16879;DHT22;8556;52.218;9.884;2022-12-07T08:21:40;4.90;99.90
16879;DHT22;8556;52.218;9.884;2022-12-07T08:24:07;4.80;99.90
16879;DHT22;8556;52.218;9.884;2022-12-07T08:26:34;4.90;99.90
16879;DHT22;8556;52.218;9.884;2022-12-07T08:29:01;4.90;99.90
16879;DHT22;8556;52.218;9.884;2022-12-07T08:31:28;4.90;99.90
16879;DHT22;8556;52.218;9.884;2022-12-07T08:33:56;5.00;99.90
16879;DHT22;8556;52.218;9.884;2022-12-07T08:36:24;5.00;99.90
16879;DHT22;8556;52.218;9.884;2022-12-07T08:38:51;5.00;99.90
16879;DHT22;8556;52.218;9.884;2022-12-07T08:41:18;5.00;99.90
16879;DHT22;8556;52.218;9.884;2022-12-07T08:43:45;5.10;99.90
16879;DHT22;8556;52.218;9.884;2022-12-07T08:46:16;5.10;99.90
16879;DHT22;8556;52.218;9.884;2022-12-07T08:48:46;5.10;99.90
16879;DHT22;8556;52.218;9.884;2022-12-07T08:51:16;5.20;99.90
16879;DHT22;8556;52.218;9.884;2022-12-07T08:53:43;5.20;99.90
16879;DHT22;8556;52.218;9.884;2022-12-07T08:56:11;5.30;99.90
16879;DHT22;8556;52.218;9.884;2022-12-07T08:58:38;5.30;99.90
16879;DHT22;8556;52.218;9.884;2022-12-07T09:01:05;5.50;99.90
16879;DHT22;8556;52.218;9.884;2022-12-07T09:03:32;5.40;99.90
16879;DHT22;8556;52.218;9.884;2022-12-07T09:06:00;5.40;99.90
16879;DHT22;8556;52.218;9.884;2022-12-07T09:08:31;5.50;99.90
16879;DHT22;8556;52.218;9.884;2022-12-07T09:10:59;5.60;99.90
16879;DHT22;8556;52.218;9.884;2022-12-07T09:13:26;5.70;99.90
16879;DHT22;8556;52.218;9.884;2022-12-07T09:15:52;5.70;99.90
16879;DHT22;8556;52.218;9.884;2022-12-07T09:18:19;5.70;99.90
16879;DHT22;8556;52.218;9.884;2022-12-07T09:20:46;5.70;99.90
16879;DHT22;8556;52.218;9.884;2022-12-07T09:23:13;5.60;99.90
16879;DHT22;8556;52.218;9.884;2022-12-07T09:25:41;5.70;99.90
16879;DHT22;8556;52.218;9.884;2022-12-07T09:28:08;5.50;99.90
16879;DHT22;8556;52.218;9.884;2022-12-07T09:30:35;5.50;99.90
16879;DHT22;8556;52.218;9.884;2022-12-07T09:33:02;5.40;99.90
16879;DHT22;8556;52.218;9.884;2022-12-07T09:35:29;5.50;99.90
16879;DHT22;8556;52.218;9.884;2022-12-07T09:37:56;5.60;99.90
16879;DHT22;8556;52.218;9.884;2022-12-07T09:40:23;5.60;99.90
16879;DHT22;8556;52.218;9.884;2022-12-07T09:42:54;5.60;99.90
16879;DHT22;8556;52.218;9.884;2022-12-07T09:45:24;5.50;99.90
16879;DHT22;8556;52.218;9.884;2022-12-07T09:47:51;5.50;99.90
16879;DHT22;8556;52.218;9.884;2022-12-07T09:50:21;5.50;99.90
16879;DHT22;8556;52.218;9.884;2022-12-07T09:52:50;5.50;99.90
16879;DHT22;8556;52.218;9.884;2022-12-07T09:55:21;5.50;99.90
16879;DHT22;8556;52.218;9.884;2022-12-07T09:57:49;5.60;99.90
16879;DHT22;8556;52.218;9.884;2022-12-07T10:00:20;5.70;99.90
16879;DHT22;8556;52.218;9.884;2022-12-07T10:02:51;6.00;99.90
16879;DHT22;8556;52.218;9.884;2022-12-07T10:05:22;6.10;99.90
16879;DHT22;8556;52.218;9.884;2022-12-07T10:07:50;6.10;99.90
16879;DHT22;8556;52.218;9.884;2022-12-07T10:10:20;6.10;99.90
16879;DHT22;8556;52.218;9.884;2022-12-07T10:12:55;6.10;99.90
16879;DHT22;8556;52.218;9.884;2022-12-07T10:15:25;6.30;99.90
16879;DHT22;8556;52.218;9.884;2022-12-07T10:18:17;6.50;99.90
16879;DHT22;8556;52.218;9.884;2022-12-07T10:20:45;6.60;99.90
16879;DHT22;8556;52.218;9.884;2022-12-07T10:23:14;6.40;99.90
16879;DHT22;8556;52.218;9.884;2022-12-07T10:25:42;6.30;99.90
16879;DHT22;8556;52.218;9.884;2022-12-07T10:28:16;6.20;99.90
16879;DHT22;8556;52.218;9.884;2022-12-07T10:30:52;6.30;99.90
16879;DHT22;8556;52.218;9.884;2022-12-07T10:33:34;6.20;99.90
16879;DHT22;8556;52.218;9.884;2022-12-07T10:36:16;6.30;99.90
16879;DHT22;8556;52.218;9.884;2022-12-07T10:38:45;6.20;99.90
16879;DHT22;8556;52.218;9.884;2022-12-07T10:41:13;6.10;99.90
16879;DHT22;8556;52.218;9.884;2022-12-07T10:43:47;6.10;99.90
16879;DHT22;8556;52.218;9.884;2022-12-07T10:46:55;6.20;99.90
16879;DHT22;8556;52.218;9.884;2022-12-07T10:52:45;6.00;99.90
16879;DHT22;8556;52.218;9.884;2022-12-07T10:55:23;6.00;99.90
16879;DHT22;8556;52.218;9.884;2022-12-07T10:58:18;6.00;99.90
16879;DHT22;8556;52.218;9.884;2022-12-07T11:00:56;6.00;99.90
16879;DHT22;8556;52.218;9.884;2022-12-07T11:03:45;6.00;99.90
16879;DHT22;8556;52.218;9.884;2022-12-07T11:06:24;6.00;99.90
16879;DHT22;8556;52.218;9.884;2022-12-07T11:09:03;6.10;99.90
16879;DHT22;8556;52.218;9.884;2022-12-07T11:11:35;6.10;99.90
16879;DHT22;8556;52.218;9.884;2022-12-07T11:14:13;6.30;99.90
16879;DHT22;8556;52.218;9.884;2022-12-07T11:16:55;6.30;99.90
16879;DHT22;8556;52.218;9.884;2022-12-07T11:19:50;6.40;99.90
16879;DHT22;8556;52.218;9.884;2022-12-07T11:22:32;6.60;99.90
16879;DHT22;8556;52.218;9.884;2022-12-07T11:25:14;6.40;99.90
16879;DHT22;8556;52.218;9.884;2022-12-07T11:27:48;6.40;99.90
16879;DHT22;8556;52.218;9.884;2022-12-07T11:30:19;6.30;99.90
16879;DHT22;8556;52.218;9.884;2022-12-07T11:33:09;6.30;99.90
16879;DHT22;8556;52.218;9.884;2022-12-07T11:35:49;6.30;99.90
16879;DHT22;8556;52.218;9.884;2022-12-07T11:38:20;6.20;99.90
16879;DHT22;8556;52.218;9.884;2022-12-07T11:40:50;6.20;99.90
16879;DHT22;8556;52.218;9.884;2022-12-07T11:43:24;6.10;99.90
16879;DHT22;8556;52.218;9.884;2022-12-07T11:45:56;6.10;99.90
16879;DHT22;8556;52.218;9.884;2022-12-07T11:48:30;6.00;99.90
16879;DHT22;8556;52.218;9.884;2022-12-07T11:51:01;6.00;99.90
16879;DHT22;8556;52.218;9.884;2022-12-07T11:53:33;6.00;99.90
16879;DHT22;8556;52.218;9.884;2022-12-07T11:56:06;5.90;99.90
16879;DHT22;8556;52.218;9.884;2022-12-07T11:58:48;5.90;99.90
16879;DHT22;8556;52.218;9.884;2022-12-07T12:01:25;5.90;99.90
16879;DHT22;8556;52.218;9.884;2022-12-07T12:03:58;5.90;99.90
16879;DHT22;8556;52.218;9.884;2022-12-07T12:06:28;5.90;99.90
16879;DHT22;8556;52.218;9.884;2022-12-07T12:08:58;5.80;99.90
16879;DHT22;8556;52.218;9.884;2022-12-07T12:11:40;5.90;99.90
16879;DHT22;8556;52.218;9.884;2022-12-07T12:14:31;5.90;99.90
16879;DHT22;8556;52.218;9.884;2022-12-07T12:17:13;5.60;99.90
16879;DHT22;8556;52.218;9.884;2022-12-07T12:19:58;5.80;99.90
16879;DHT22;8556;52.218;9.884;2022-12-07T12:22:33;5.60;99.90
16879;DHT22;8556;52.218;9.884;2022-12-07T12:25:04;5.60;99.90
16879;DHT22;8556;52.218;9.884;2022-12-07T12:27:34;5.80;99.90
16879;DHT22;8556;52.218;9.884;2022-12-07T12:30:04;5.90;99.90
16879;DHT22;8556;52.218;9.884;2022-12-07T12:32:36;5.80;99.90
16879;DHT22;8556;52.218;9.884;2022-12-07T12:35:21;5.80;99.90
16879;DHT22;8556;52.218;9.884;2022-12-07T12:37:52;5.80;99.90
16879;DHT22;8556;52.218;9.884;2022-12-07T12:40:42;5.90;99.90
16879;DHT22;8556;52.218;9.884;2022-12-07T12:43:44;5.90;99.90
16879;DHT22;8556;52.218;9.884;2022-12-07T12:46:46;5.90;99.90
16879;DHT22;8556;52.218;9.884;2022-12-07T12:49:32;6.10;99.90
16879;DHT22;8556;52.218;9.884;2022-12-07T12:52:01;6.20;99.90
16879;DHT22;8556;52.218;9.884;2022-12-07T12:55:00;6.20;99.90
16879;DHT22;8556;52.218;9.884;2022-12-07T12:57:29;6.30;99.90
16879;DHT22;8556;52.218;9.884;2022-12-07T12:59:57;6.50;99.90
16879;DHT22;8556;52.218;9.884;2022-12-07T13:02:26;6.60;99.90
16879;DHT22;8556;52.218;9.884;2022-12-07T13:04:56;6.60;99.90
16879;DHT22;8556;52.218;9.884;2022-12-07T13:07:57;6.50;99.90
16879;DHT22;8556;52.218;9.884;2022-12-07T13:10:38;6.40;99.90
16879;DHT22;8556;52.218;9.884;2022-12-07T13:13:29;6.40;99.90
16879;DHT22;8556;52.218;9.884;2022-12-07T13:16:36;6.40;99.90
16879;DHT22;8556;52.218;9.884;2022-12-07T13:22:46;6.40;99.90
16879;DHT22;8556;52.218;9.884;2022-12-07T13:25:20;6.40;99.90
16879;DHT22;8556;52.218;9.884;2022-12-07T13:27:52;6.30;99.90
16879;DHT22;8556;52.218;9.884;2022-12-07T13:30:22;6.40;99.90
16879;DHT22;8556;52.218;9.884;2022-12-07T13:32:52;6.30;99.90
16879;DHT22;8556;52.218;9.884;2022-12-07T13:35:35;6.20;99.90
16879;DHT22;8556;52.218;9.884;2022-12-07T13:38:05;6.30;99.90
16879;DHT22;8556;52.218;9.884;2022-12-07T13:40:32;6.20;99.90
16879;DHT22;8556;52.218;9.884;2022-12-07T13:43:01;6.20;99.90
16879;DHT22;8556;52.218;9.884;2022-12-07T13:45:30;6.20;99.90
16879;DHT22;8556;52.218;9.884;2022-12-07T13:48:20;6.10;99.90
16879;DHT22;8556;52.218;9.884;2022-12-07T13:50:54;6.10;99.90
16879;DHT22;8556;52.218;9.884;2022-12-07T13:53:21;6.10;99.90
16879;DHT22;8556;52.218;9.884;2022-12-07T13:55:48;6.10;99.90
16879;DHT22;8556;52.218;9.884;2022-12-07T13:58:15;6.10;99.90
16879;DHT22;8556;52.218;9.884;2022-12-07T14:00:43;6.10;99.90
16879;DHT22;8556;52.218;9.884;2022-12-07T14:03:34;6.00;99.90
16879;DHT22;8556;52.218;9.884;2022-12-07T14:06:13;6.00;99.90
16879;DHT22;8556;52.218;9.884;2022-12-07T14:08:41;5.90;99.90
16879;DHT22;8556;52.218;9.884;2022-12-07T14:11:11;5.90;99.90
16879;DHT22;8556;52.218;9.884;2022-12-07T14:13:55;5.90;99.90
16879;DHT22;8556;52.218;9.884;2022-12-07T14:16:25;5.80;99.90
16879;DHT22;8556;52.218;9.884;2022-12-07T14:18:53;5.80;99.90
16879;DHT22;8556;52.218;9.884;2022-12-07T14:21:23;5.80;99.90
16879;DHT22;8556;52.218;9.884;2022-12-07T14:24:09;5.90;99.90
16879;DHT22;8556;52.218;9.884;2022-12-07T14:26:38;5.70;99.90
16879;DHT22;8556;52.218;9.884;2022-12-07T14:29:22;5.70;99.90
16879;DHT22;8556;52.218;9.884;2022-12-07T14:31:49;5.70;99.90
16879;DHT22;8556;52.218;9.884;2022-12-07T14:34:20;5.70;99.90
16879;DHT22;8556;52.218;9.884;2022-12-07T14:36:48;5.70;99.90
16879;DHT22;8556;52.218;9.884;2022-12-07T14:39:16;5.70;99.90
16879;DHT22;8556;52.218;9.884;2022-12-07T14:41:42;5.60;99.90
16879;DHT22;8556;52.218;9.884;2022-12-07T14:44:19;5.60;99.90
16879;DHT22;8556;52.218;9.884;2022-12-07T14:46:47;5.60;99.90
16879;DHT22;8556;52.218;9.884;2022-12-07T14:49:14;5.60;99.90
16879;DHT22;8556;52.218;9.884;2022-12-07T14:51:42;5.60;99.90
16879;DHT22;8556;52.218;9.884;2022-12-07T14:54:15;5.50;99.90
16879;DHT22;8556;52.218;9.884;2022-12-07T14:56:42;5.50;99.90
16879;DHT22;8556;52.218;9.884;2022-12-07T14:59:11;5.50;99.90
16879;DHT22;8556;52.218;9.884;2022-12-07T15:01:38;5.50;99.90
16879;DHT22;8556;52.218;9.884;2022-12-07T15:04:05;5.50;99.90
16879;DHT22;8556;52.218;9.884;2022-12-07T15:06:33;5.40;99.90
16879;DHT22;8556;52.218;9.884;2022-12-07T15:09:01;5.40;99.90
16879;DHT22;8556;52.218;9.884;2022-12-07T15:11:29;5.30;99.90
16879;DHT22;8556;52.218;9.884;2022-12-07T15:13:56;5.30;99.90
16879;DHT22;8556;52.218;9.884;2022-12-07T15:16:38;5.30;99.90
16879;DHT22;8556;52.218;9.884;2022-12-07T15:19:08;5.30;99.90
16879;DHT22;8556;52.218;9.884;2022-12-07T15:21:36;5.20;99.90
16879;DHT22;8556;52.218;9.884;2022-12-07T15:24:04;5.20;99.90
16879;DHT22;8556;52.218;9.884;2022-12-07T15:26:32;5.20;99.90
16879;DHT22;8556;52.218;9.884;2022-12-07T15:29:00;5.10;99.90
16879;DHT22;8556;52.218;9.884;2022-12-07T15:31:27;5.00;99.90
16879;DHT22;8556;52.218;9.884;2022-12-07T15:33:54;5.00;99.90
16879;DHT22;8556;52.218;9.884;2022-12-07T15:36:25;5.00;99.90
16879;DHT22;8556;52.218;9.884;2022-12-07T15:38:53;4.90;99.90
16879;DHT22;8556;52.218;9.884;2022-12-07T15:41:20;4.80;99.90
16879;DHT22;8556;52.218;9.884;2022-12-07T15:43:48;4.90;99.90
16879;DHT22;8556;52.218;9.884;2022-12-07T15:46:34;4.70;99.90
16879;DHT22;8556;52.218;9.884;2022-12-07T15:49:02;4.70;99.90
16879;DHT22;8556;52.218;9.884;2022-12-07T15:51:29;4.60;99.90
16879;DHT22;8556;52.218;9.884;2022-12-07T15:53:57;4.60;99.90
16879;DHT22;8556;52.218;9.884;2022-12-07T15:56:24;4.50;99.90
16879;DHT22;8556;52.218;9.884;2022-12-07T15:58:52;4.60;99.90
16879;DHT22;8556;52.218;9.884;2022-12-07T16:01:19;4.50;99.90
16879;DHT22;8556;52.218;9.884;2022-12-07T16:03:46;4.60;99.90
16879;DHT22;8556;52.218;9.884;2022-12-07T16:06:15;4.50;99.90
16879;DHT22;8556;52.218;9.884;2022-12-07T16:08:42;4.50;99.90
16879;DHT22;8556;52.218;9.884;2022-12-07T16:11:14;4.40;99.90
16879;DHT22;8556;52.218;9.884;2022-12-07T16:13:40;4.40;99.90
16879;DHT22;8556;52.218;9.884;2022-12-07T16:16:12;4.40;99.90
16879;DHT22;8556;52.218;9.884;2022-12-07T16:18:39;4.30;99.90
16879;DHT22;8556;52.218;9.884;2022-12-07T16:21:06;4.30;99.90
16879;DHT22;8556;52.218;9.884;2022-12-07T16:23:33;4.20;99.90
16879;DHT22;8556;52.218;9.884;2022-12-07T16:26:05;4.10;99.90
16879;DHT22;8556;52.218;9.884;2022-12-07T16:28:32;4.00;99.90
16879;DHT22;8556;52.218;9.884;2022-12-07T16:31:07;4.00;99.90
16879;DHT22;8556;52.218;9.884;2022-12-07T16:33:37;3.80;99.90
16879;DHT22;8556;52.218;9.884;2022-12-07T16:36:05;3.90;99.90
16879;DHT22;8556;52.218;9.884;2022-12-07T16:38:33;3.80;99.90